Time;durP1;ratioP1;P1;durP2;ratioP2;P2;SDS_P1;SDS_P2;PMS_P1;PMS_P2;Temp;Humidity;BMP_temperature;BMP_pressure;BME280_temperature;BME280_humidity;BME280_pressure;Samples;Min_cycle;Max_cycle;Signal;HPM_P1;HPM_P2
2022/04/15 05:23:40;;;;;;;36.83;18.55;;;154.20;2252.80;;;;;;5213155;23;20200;-80
2022/04/15 06:38:39;;;;;;;15.02;8.02;;;231.10;2227.20;;;;;;4853812;29;20041;-81
2022/04/15 06:41:08;;;;;;;17.40;8.35;;;256.00;2176.00;;;;;;4843878;29;20041;-80
2022/04/15 06:44:15;;;;;;;22.77;10.55;;;256.10;2150.40;;;;;;4844385;29;20061;-80
2022/04/15 06:46:41;;;;;;;15.75;8.70;;;256.30;2150.40;;;;;;4836988;29;20128;-80
2022/04/15 06:49:09;;;;;;;17.73;9.45;;;256.50;2124.80;;;;;;4861646;29;20117;-81
2022/04/15 06:56:04;;;;;;;;;;;;;;;;;;;;;
2022/04/15 06:59:08;;;;;;;16.60;8.18;;;281.90;2073.60;;;;;;4824266;29;20491;-78
2022/04/15 07:01:35;;;;;;;15.68;9.27;;;282.10;2048.00;;;;;;4827873;29;20037;-78
2022/04/15 07:49:23;;;;;;;14.20;7.93;;;358.90;1740.80;;;;;;4844018;29;20044;-77
2022/04/15 07:55:29;;;;;;;14.63;8.10;;;359.30;1689.60;;;;;;4865782;29;20036;-78
2022/04/15 08:01:27;;;;;;;15.25;9.25;;;384.50;1664.00;;;;;;4844528;29;20078;-79
2022/04/15 08:03:54;;;;;;;17.25;9.52;;;384.50;1664.00;;;;;;4845053;29;20025;-76
2022/04/15 08:06:22;;;;;;;22.73;10.77;;;384.70;1664.00;;;;;;4842902;29;20030;-77
2022/04/15 08:08:54;;;;;;;21.05;11.60;;;409.70;1689.60;;;;;;4843190;29;20551;-78
2022/04/15 08:11:20;;;;;;;23.58;12.88;;;409.70;1664.00;;;;;;4848955;29;20024;-76
2022/04/15 08:13:47;;;;;;;21.20;13.65;;;410.00;1587.20;;;;;;4842287;29;20499;-79
2022/04/15 08:16:13;;;;;;;17.85;9.80;;;410.40;1536.00;;;;;;4842634;29;20058;-76
2022/04/15 08:18:38;;;;;;;18.10;10.02;;;435.20;1510.40;;;;;;4842375;29;20042;-78
2022/04/15 08:21:04;;;;;;;14.52;7.72;;;435.40;1510.40;;;;;;4842820;29;20444;-75
2022/04/15 08:23:30;;;;;;;12.68;8.70;;;435.60;1484.80;;;;;;4842755;29;20121;-77
2022/04/15 08:25:56;;;;;;;12.75;6.45;;;435.80;1510.40;;;;;;4842687;29;20030;-81
2022/04/15 08:28:21;;;;;;;15.82;7.93;;;435.70;1484.80;;;;;;4842624;29;20066;-78
2022/04/15 08:30:47;;;;;;;14.23;11.05;;;435.80;1484.80;;;;;;4843949;29;20034;-76
2022/04/15 08:33:13;;;;;;;13.40;7.95;;;436.10;1459.20;;;;;;4842407;29;20034;-78
2022/04/15 08:35:39;;;;;;;12.20;6.65;;;460.90;1484.80;;;;;;4841944;29;20100;-75
2022/04/15 08:38:06;;;;;;;17.48;10.38;;;460.90;1459.20;;;;;;4842199;29;20479;-77
2022/04/15 08:40:35;;;;;;;12.75;8.95;;;461.10;1459.20;;;;;;4847856;29;20057;-75
2022/04/15 08:43:03;;;;;;;12.05;7.80;;;461.20;1484.80;;;;;;4861939;29;20092;-79
2022/04/15 08:45:30;;;;;;;16.67;6.57;;;461.40;1484.80;;;;;;4860567;29;20049;-77
2022/04/15 08:47:59;;;;;;;17.95;9.45;;;461.50;1459.20;;;;;;4860797;29;20489;-78
2022/04/15 08:50:35;;;;;;;17.95;13.82;;;486.40;1459.20;;;;;;4860058;29;20494;-81
2022/04/15 08:53:29;;;;;;;10.13;6.25;;;486.40;1459.20;;;;;;4859723;29;20112;-79
2022/04/15 08:55:57;;;;;;;12.00;6.65;;;486.40;1459.20;;;;;;4859778;29;20120;-77
2022/04/15 08:58:23;;;;;;;13.82;9.23;;;486.50;1484.80;;;;;;4858884;29;20375;-79
2022/04/15 09:00:49;;;;;;;20.45;8.75;;;486.70;1484.80;;;;;;4858928;29;20561;-76
2022/04/15 09:03:15;;;;;;;6.57;4.75;;;486.80;1484.80;;;;;;4859816;29;20126;-79
2022/04/15 09:05:40;;;;;;;14.95;6.93;;;486.80;1484.80;;;;;;4860454;29;20041;-77
2022/04/15 09:08:10;;;;;;;12.68;6.97;;;486.90;1459.20;;;;;;4844437;29;20030;-77
2022/04/15 09:10:36;;;;;;;11.25;7.38;;;487.00;1459.20;;;;;;4858699;29;20057;-77
2022/04/15 09:13:05;;;;;;;11.18;6.40;;;487.20;1459.20;;;;;;4847957;29;20448;-78
2022/04/15 09:15:31;;;;;;;11.43;8.60;;;512.00;1459.20;;;;;;4837507;29;20025;-79
2022/04/15 09:18:00;;;;;;;13.10;7.03;;;512.00;1459.20;;;;;;4839113;29;20563;-76
2022/04/15 09:20:31;;;;;;;11.65;7.38;;;512.40;1459.20;;;;;;4827729;29;20034;-79
2022/04/15 09:23:10;;;;;;;11.70;6.77;;;512.50;1459.20;;;;;;4826742;29;20102;-81
2022/04/15 09:25:39;;;;;;;16.63;9.32;;;512.60;1433.60;;;;;;4826870;29;20270;-77
2022/04/15 09:28:05;;;;;;;16.35;8.30;;;512.90;1459.20;;;;;;4842464;29;20383;-81
2022/04/15 09:30:34;;;;;;;11.57;6.18;;;537.60;1459.20;;;;;;4842594;29;20376;-79
2022/04/15 09:33:01;;;;;;;12.95;7.82;;;537.70;1433.60;;;;;;4826870;29;20030;-79
2022/04/15 09:35:28;;;;;;;11.05;6.50;;;537.90;1459.20;;;;;;4826445;29;20030;-78
2022/04/15 09:38:03;;;;;;;10.10;6.03;;;537.90;1433.60;;;;;;4826130;29;20034;-78
2022/04/15 09:40:31;;;;;;;15.20;6.80;;;537.90;1408.00;;;;;;4826754;29;20034;-80
2022/04/15 09:42:58;;;;;;;12.15;9.00;;;538.00;1433.60;;;;;;4828636;29;20040;-79
2022/04/15 09:45:25;;;;;;;10.05;5.80;;;538.10;1408.00;;;;;;4842977;29;20056;-80
2022/04/15 09:47:55;;;;;;;13.55;7.10;;;538.20;1408.00;;;;;;4860050;29;20037;-79
2022/04/15 09:50:26;;;;;;;11.05;6.50;;;538.50;1408.00;;;;;;4859904;29;20065;-82
2022/04/15 09:52:54;;;;;;;11.95;6.65;;;563.30;1408.00;;;;;;4860209;29;20057;-81
2022/04/15 09:55:21;;;;;;;8.93;5.70;;;563.50;1433.60;;;;;;4859875;29;20053;-78
2022/04/15 09:57:51;;;;;;;10.77;5.53;;;563.60;1433.60;;;;;;4860036;29;20120;-79
2022/04/15 10:00:18;;;;;;;11.25;6.40;;;563.70;1433.60;;;;;;4859558;29;20030;-80
2022/04/15 10:02:46;;;;;;;11.98;6.32;;;564.00;1433.60;;;;;;4859913;29;20057;-80
2022/04/15 10:05:13;;;;;;;11.05;5.32;;;564.10;1433.60;;;;;;4860076;29;20029;-80
2022/04/15 10:07:42;;;;;;;21.13;15.27;;;588.80;1433.60;;;;;;4859606;29;20044;-79
2022/04/15 10:10:10;;;;;;;10.55;5.93;;;588.90;1433.60;;;;;;4859039;29;20085;-79
2022/04/15 10:12:39;;;;;;;13.68;9.10;;;589.00;1408.00;;;;;;4859707;29;20030;-82
2022/04/15 10:15:10;;;;;;;14.25;7.47;;;589.20;1408.00;;;;;;4859603;29;20070;-79
2022/04/15 10:17:39;;;;;;;13.10;6.85;;;589.40;1408.00;;;;;;4859773;29;20034;-82
2022/04/15 10:20:07;;;;;;;15.38;7.70;;;589.20;1408.00;;;;;;4859952;29;20127;-80
2022/04/15 10:22:37;;;;;;;8.57;6.05;;;589.50;1408.00;;;;;;4860142;29;20041;-81
2022/04/15 10:25:07;;;;;;;10.48;6.70;;;589.50;1408.00;;;;;;4862910;29;20538;-82
2022/04/15 10:27:33;;;;;;;13.15;8.05;;;614.60;1408.00;;;;;;4861665;29;20124;-81
2022/04/15 10:30:15;;;;;;;13.43;5.70;;;614.90;1408.00;;;;;;4848259;29;20112;-81
2022/04/15 10:32:55;;;;;;;9.35;4.13;;;615.20;1382.40;;;;;;4848517;29;20030;-80
2022/04/15 10:35:31;;;;;;;9.93;4.80;;;614.90;1382.40;;;;;;4848264;29;20041;-84
2022/04/15 10:38:02;;;;;;;9.77;4.90;;;615.10;1356.80;;;;;;4847862;29;20033;-83
2022/04/15 10:40:32;;;;;;;10.48;6.55;;;614.80;1356.80;;;;;;4847795;29;20037;-81
2022/04/15 10:43:24;;;;;;;12.32;8.13;;;640.00;1356.80;;;;;;4847805;29;20037;-81
2022/04/15 10:46:13;;;;;;;9.83;5.00;;;640.70;1356.80;;;;;;4843654;29;20056;-82
2022/04/15 10:48:41;;;;;;;10.60;6.68;;;640.70;1280.00;;;;;;4844375;29;20510;-80
2022/04/15 10:51:23;;;;;;;10.57;5.78;;;665.60;1331.20;;;;;;4843725;29;20066;-80
2022/04/15 10:53:49;;;;;;;8.15;5.40;;;666.00;1280.00;;;;;;4844488;29;20041;-85
2022/04/15 10:56:15;;;;;;;13.05;5.75;;;666.30;1280.00;;;;;;4844609;29;20395;-85
2022/04/15 11:02:00;;;;;;;12.05;7.40;;;691.20;1280.00;;;;;;4844931;29;20036;-82
2022/04/15 11:04:26;;;;;;;11.23;7.38;;;691.30;1254.40;;;;;;4844285;29;20037;-81
2022/04/15 11:06:55;;;;;;;8.75;4.85;;;691.50;1228.80;;;;;;4845205;29;20480;-80
2022/04/15 11:09:25;;;;;;;12.88;5.30;;;691.70;1228.80;;;;;;4845868;29;20475;-87
2022/04/15 11:11:53;;;;;;;7.85;4.88;;;691.80;1203.20;;;;;;4847255;29;20026;-80
2022/04/15 11:14:40;;;;;;;8.40;5.20;;;691.90;1177.60;;;;;;4847351;29;20030;-77
2022/04/15 11:17:09;;;;;;;7.18;4.63;;;692.00;1203.20;;;;;;4847426;29;20030;-79
2022/04/15 11:19:36;;;;;;;7.45;5.00;;;692.10;1203.20;;;;;;4843277;29;20033;-81
2022/04/15 11:22:01;;;;;;;11.98;7.25;;;716.90;1254.40;;;;;;4843328;29;20029;-81
2022/04/15 11:24:33;;;;;;;10.55;4.00;;;716.90;1228.80;;;;;;4843817;29;20391;-79
2022/04/15 11:27:03;;;;;;;12.13;4.85;;;692.10;1152.00;;;;;;4843748;29;20048;-80
2022/04/15 11:29:31;;;;;;;12.38;4.43;;;692.10;1152.00;;;;;;4844284;29;20147;-81
2022/04/15 11:31:59;;;;;;;12.65;6.00;;;717.10;1177.60;;;;;;4844479;29;20033;-81
2022/04/15 11:34:26;;;;;;;8.48;4.20;;;717.40;1203.20;;;;;;4845040;29;20037;-79
2022/04/15 11:36:56;;;;;;;8.52;4.93;;;717.50;1203.20;;;;;;4843013;29;20054;-82
2022/04/15 11:39:24;;;;;;;9.55;4.93;;;742.40;1203.20;;;;;;4845113;29;20113;-82
2022/04/15 11:41:52;;;;;;;12.02;4.53;;;742.50;1203.20;;;;;;4844223;29;20082;-81
2022/04/15 11:44:19;;;;;;;7.13;4.55;;;742.60;1177.60;;;;;;4843621;29;20053;-79
2022/04/15 11:46:48;;;;;;;10.00;3.95;;;742.80;1152.00;;;;;;4844857;29;20058;-82
2022/04/15 11:49:30;;;;;;;11.98;7.47;;;742.80;1177.60;;;;;;4844502;29;20387;-80
2022/04/15 11:51:58;;;;;;;10.27;6.70;;;742.50;1152.00;;;;;;4843952;29;20030;-78
2022/04/15 11:54:31;;;;;;;11.05;5.75;;;742.60;1152.00;;;;;;4843411;29;20046;-78
2022/04/15 11:56:58;;;;;;;11.40;4.82;;;742.90;1177.60;;;;;;4843841;29;20418;-82
2022/04/15 11:59:25;;;;;;;9.23;5.20;;;743.00;1152.00;;;;;;4845007;29;20375;-81
2022/04/15 12:01:53;;;;;;;15.35;9.45;;;743.30;1126.40;;;;;;4844595;29;20052;-80
2022/04/15 12:04:19;;;;;;;15.15;11.57;;;768.20;1152.00;;;;;;4843882;29;20033;-84
2022/04/15 12:06:48;;;;;;;12.80;6.97;;;768.30;1152.00;;;;;;4843540;29;20038;-83
2022/04/15 12:09:15;;;;;;;15.65;5.80;;;768.40;1126.40;;;;;;4843471;29;20041;-82
2022/04/15 12:11:42;;;;;;;9.25;6.13;;;768.40;1126.40;;;;;;4843547;29;20142;-84
2022/04/15 12:14:09;;;;;;;9.70;5.80;;;768.40;1126.40;;;;;;4843379;29;20038;-85
2022/04/15 12:16:39;;;;;;;9.95;6.45;;;768.50;1126.40;;;;;;4844318;29;20034;-81
2022/04/15 12:19:07;;;;;;;14.70;7.45;;;768.50;1100.80;;;;;;4843404;29;20034;-85
2022/04/15 12:21:34;;;;;;;8.05;4.65;;;768.60;1100.80;;;;;;4843235;29;20144;-82
2022/04/15 12:24:09;;;;;;;8.35;3.85;;;768.60;1075.20;;;;;;4843304;29;20030;-83
2022/04/15 12:26:49;;;;;;;11.75;4.80;;;768.40;1075.20;;;;;;4843225;29;20036;-84
2022/04/15 12:32:24;;;;;;;5.72;2.80;;;768.80;1100.80;;;;;;4843760;29;20040;-80
2022/04/15 12:34:59;;;;;;;10.73;6.70;;;768.10;1075.20;;;;;;4844256;29;20037;-83
2022/04/15 12:37:47;;;;;;;9.77;3.72;;;768.40;1100.80;;;;;;4842903;29;20527;-81
2022/04/15 12:40:22;;;;;;;10.38;6.57;;;743.30;1100.80;;;;;;4842908;29;20121;-83
2022/04/15 12:42:50;;;;;;;10.43;6.50;;;768.10;1100.80;;;;;;4842843;29;20030;-80
2022/04/15 12:45:17;;;;;;;7.55;4.93;;;768.50;1100.80;;;;;;4842522;29;20033;-83
2022/04/15 12:47:58;;;;;;;16.58;3.78;;;768.50;1049.60;;;;;;4842594;29;20075;-85
2022/04/15 12:50:29;;;;;;;7.78;3.83;;;768.60;1049.60;;;;;;4842470;29;20471;-81
2022/04/15 12:52:56;;;;;;;11.40;4.75;;;768.60;1049.60;;;;;;4842072;29;20113;-80
2022/04/15 12:55:33;;;;;;;6.28;4.32;;;768.60;1075.20;;;;;;4853936;29;20033;-81
2022/04/15 12:58:00;;;;;;;9.15;4.15;;;768.50;1075.20;;;;;;4860714;29;20093;-80
2022/04/15 13:00:27;;;;;;;14.02;4.70;;;768.30;1075.20;;;;;;4861066;29;20026;-80
2022/04/15 13:02:53;;;;;;;7.65;3.88;;;768.40;1100.80;;;;;;4845537;29;20033;-79
2022/04/15 13:05:20;;;;;;;8.13;3.30;;;768.50;1075.20;;;;;;4860307;29;20475;-81
2022/04/15 13:07:49;;;;;;;6.30;3.50;;;768.20;1075.20;;;;;;4860352;29;20439;-81
2022/04/15 13:10:15;;;;;;;7.35;3.47;;;768.10;1075.20;;;;;;4860473;29;20394;-81
2022/04/15 13:12:41;;;;;;;8.38;3.80;;;768.10;1075.20;;;;;;4861174;29;20467;-80
2022/04/15 13:15:08;;;;;;;11.98;6.13;;;768.10;1075.20;;;;;;4860631;29;20062;-81
2022/04/15 13:17:34;;;;;;;7.68;5.20;;;768.20;1049.60;;;;;;4860640;29;20034;-83
2022/04/15 13:20:03;;;;;;;8.57;4.40;;;768.40;1075.20;;;;;;4844689;29;20029;-81
2022/04/15 13:22:31;;;;;;;10.73;4.68;;;743.30;1075.20;;;;;;4844579;29;20046;-82
2022/04/15 13:24:57;;;;;;;10.27;6.15;;;743.00;1100.80;;;;;;4860266;29;20086;-84
2022/04/15 13:27:32;;;;;;;16.40;10.15;;;743.10;1075.20;;;;;;4859981;29;20394;-82
2022/04/15 13:29:58;;;;;;;13.18;9.02;;;768.10;1075.20;;;;;;4860524;29;20412;-81
2022/04/15 13:32:24;;;;;;;10.40;7.55;;;768.40;1049.60;;;;;;4861373;29;20029;-79
2022/04/15 13:34:50;;;;;;;11.48;5.85;;;768.70;1075.20;;;;;;4859814;29;20058;-82
2022/04/15 15:33:09;;;;;;;11.30;7.00;;;691.90;1126.40;;;;;;4805681;29;19931;-80
2022/04/15 15:36:31;;;;;;;14.35;8.88;;;666.30;1126.40;;;;;;4748272;30;20036;-81
2022/04/15 15:39:23;;;;;;;20.10;12.23;;;691.40;1126.40;;;;;;4752232;30;20034;-81
2022/04/15 15:48:40;;;;;;;15.25;9.02;;;666.20;1126.40;;;;;;4751816;30;20066;-81
2022/04/15 15:51:05;;;;;;;18.42;8.30;;;666.00;1152.00;;;;;;4739005;30;20032;-80
2022/04/15 16:03:37;;;;;;;20.27;8.90;;;665.70;1203.20;;;;;;4807923;29;20397;-81
2022/04/15 16:06:46;;;;;;;21.52;10.73;;;665.70;1177.60;;;;;;4807808;29;20026;-80
2022/04/15 16:09:13;;;;;;;19.38;12.43;;;665.60;1203.20;;;;;;4806464;29;20026;-79
2022/04/15 16:12:15;;;;;;;14.82;8.98;;;640.90;1126.40;;;;;;4806865;29;20031;-81
2022/04/15 16:14:46;;;;;;;11.73;6.93;;;640.90;1100.80;;;;;;4737135;30;20032;-80
2022/04/15 16:17:30;;;;;;;;;;;;;;;;;;;;;
2022/04/15 16:28:04;;;;;;;18.98;10.35;;;640.40;1100.80;;;;;;4807480;29;20384;-80
2022/04/15 16:30:18;;;;;;;20.65;12.43;;;640.20;1177.60;;;;;;4806436;29;20099;-80
2022/04/15 16:32:59;;;;;;;19.20;10.20;;;615.30;1203.20;;;;;;4820081;29;20070;-80
2022/04/15 16:35:43;;;;;;;15.05;10.82;;;615.10;1228.80;;;;;;4821346;29;20061;-81
2022/04/15 16:41:59;;;;;;;13.07;7.45;;;614.60;1228.80;;;;;;4786812;30;20042;-79
2022/04/15 16:45:19;;;;;;;21.20;7.85;;;589.70;1280.00;;;;;;4787533;29;20469;-81
2022/04/15 16:47:57;;;;;;;11.80;7.10;;;589.40;1280.00;;;;;;4788328;29;20074;-81
2022/04/15 16:50:23;;;;;;;17.27;8.90;;;589.30;1305.60;;;;;;4808030;29;20015;-80
2022/04/15 16:52:49;;;;;;;11.95;7.47;;;589.10;1331.20;;;;;;4830154;29;20044;-81
2022/04/15 17:00:46;;;;;;;13.23;8.40;;;564.10;1331.20;;;;;;4823733;29;20041;-82
2022/04/15 17:03:23;;;;;;;14.27;7.70;;;563.90;1331.20;;;;;;4805975;29;20031;-84
2022/04/15 17:06:01;;;;;;;26.65;7.95;;;563.70;1382.40;;;;;;4810501;29;20019;-83
2022/04/15 17:08:29;;;;;;;17.52;9.23;;;563.60;1382.40;;;;;;4829279;29;20039;-82
2022/04/15 17:14:20;;;;;;;18.05;15.93;;;563.50;1382.40;;;;;;4832656;29;20023;-81
2022/04/15 17:16:46;;;;;;;31.08;18.25;;;563.50;1382.40;;;;;;4829289;29;20040;-82
2022/04/15 17:19:12;;;;;;;41.40;10.60;;;563.30;1408.00;;;;;;4829448;29;20084;-82
2022/04/15 17:21:37;;;;;;;15.77;9.15;;;563.30;1408.00;;;;;;4828475;29;20048;-82
2022/04/15 17:24:05;;;;;;;20.25;10.57;;;538.50;1408.00;;;;;;4844675;29;20023;-80
2022/04/15 17:26:34;;;;;;;29.38;17.02;;;538.40;1433.60;;;;;;4813479;29;20033;-85
2022/04/15 17:29:00;;;;;;;76.57;18.25;;;538.30;1408.00;;;;;;4807324;29;20121;-80
2022/04/15 17:31:25;;;;;;;48.13;15.52;;;538.10;1408.00;;;;;;4805796;29;20133;-80
2022/04/15 17:33:51;;;;;;;287.77;39.15;;;537.90;1433.60;;;;;;4805303;29;20034;-82
2022/04/15 17:36:17;;;;;;;84.50;14.38;;;537.90;1408.00;;;;;;4805893;29;20026;-79
2022/04/15 17:38:44;;;;;;;24.20;9.30;;;537.90;1356.80;;;;;;4805761;29;20034;-83
2022/04/15 17:41:10;;;;;;;13.80;6.55;;;538.00;1331.20;;;;;;4806292;29;20027;-82
2022/04/15 17:43:36;;;;;;;20.83;10.93;;;538.10;1331.20;;;;;;4805987;29;20038;-81
2022/04/15 17:46:04;;;;;;;50.88;27.80;;;538.10;1356.80;;;;;;4807320;29;20031;-81
2022/04/15 17:48:30;;;;;;;45.55;28.33;;;538.10;1382.40;;;;;;4805912;29;20476;-78
2022/04/15 17:50:56;;;;;;;38.88;23.23;;;537.90;1433.60;;;;;;4806130;29;20054;-81
2022/04/15 17:53:22;;;;;;;38.63;20.27;;;537.80;1433.60;;;;;;4806371;29;20084;-79
2022/04/15 17:55:48;;;;;;;29.52;17.75;;;538.00;1459.20;;;;;;4808467;29;20417;-81
2022/04/15 17:58:19;;;;;;;36.70;21.10;;;512.70;1433.60;;;;;;4815092;29;20069;-81
2022/04/15 18:00:47;;;;;;;24.15;15.93;;;512.60;1433.60;;;;;;4824734;29;20054;-81
2022/04/15 18:03:13;;;;;;;42.03;22.45;;;512.40;1459.20;;;;;;4838833;29;20026;-82
2022/04/15 18:05:39;;;;;;;28.77;19.08;;;512.30;1459.20;;;;;;4823454;29;20026;-81
2022/04/15 18:08:07;;;;;;;31.13;18.05;;;512.00;1484.80;;;;;;4823570;29;20031;-83
2022/04/15 18:10:33;;;;;;;29.45;14.63;;;512.00;1484.80;;;;;;4823772;29;20058;-80
2022/04/15 18:12:58;;;;;;;31.77;17.23;;;487.30;1459.20;;;;;;4823367;29;20053;-83
2022/04/15 18:15:25;;;;;;;22.30;16.35;;;487.10;1459.20;;;;;;4824529;29;20463;-81
2022/04/15 18:17:53;;;;;;;29.77;17.77;;;487.10;1510.40;;;;;;4823530;29;20096;-81
2022/04/15 18:20:19;;;;;;;34.97;20.90;;;487.00;1484.80;;;;;;4823458;29;20042;-79
2022/04/15 18:22:45;;;;;;;33.33;20.20;;;487.00;1510.40;;;;;;4824300;29;20451;-80
2022/04/15 18:43:36;;;;;;;46.42;31.10;;;486.50;1561.60;;;;;;4824060;29;20037;-80
2022/04/15 18:47:10;;;;;;;38.95;26.25;;;486.50;1536.00;;;;;;4823458;29;20044;-81
2022/04/15 19:12:23;;;;;;;38.85;27.40;;;461.50;1510.40;;;;;;5165528;23;20045;-82
2022/04/15 19:14:49;;;;;;;33.92;24.58;;;461.70;1510.40;;;;;;4847182;29;20500;-80
2022/04/15 19:17:15;;;;;;;38.67;25.08;;;461.70;1536.00;;;;;;4846482;29;20021;-80
2022/04/15 19:19:43;;;;;;;32.50;20.10;;;461.70;1536.00;;;;;;4847274;29;20030;-80
2022/04/15 19:22:46;;;;;;;31.30;19.67;;;461.60;1536.00;;;;;;4847097;29;20419;-80
2022/04/15 19:25:13;;;;;;;29.05;18.27;;;461.70;1510.40;;;;;;4846754;29;20030;-78
2022/04/15 19:28:35;;;;;;;33.03;23.75;;;461.50;1536.00;;;;;;4846535;29;20030;-82
2022/04/15 21:22:19;;;;;;;184.63;109.88;;;409.70;1792.00;;;;;;4843965;29;20146;-89
2022/04/15 21:25:06;;;;;;;132.57;68.78;;;409.70;1843.20;;;;;;4828087;29;20030;-86
2022/04/15 21:38:04;;;;;;;;;;;384.60;1817.60;;;;;;4861748;29;20052;-85
2022/04/15 22:39:34;;;;;;;54.33;33.10;;;359.20;1920.00;;;;;;4790130;30;20039;-86
2022/04/15 22:42:03;;;;;;;30.13;18.15;;;359.00;1894.40;;;;;;4774870;30;20102;-88
2022/04/15 22:44:29;;;;;;;29.95;14.75;;;359.00;1868.80;;;;;;4836571;29;20037;-86
2022/04/15 22:57:40;;;;;;;;;;;;;;;;;;;;;
